Flugplatz - Wetter - Augsburg

[Quelle: ADDS]
METAR
EDMA 210620Z VRB02KT 7000 NSC 05/05 Q1022 =
TAF
COR EDMA 210558Z 2106/2115 VRB02KT 2500 BCFG NSC BECMG 2106/2107 9999 =
SR / SS: 05:05 / 17:18 UTC (Günzburg 2017-09-21)

Flugplatz - Wetter - Laupheim

[Quelle: ADDS]
METAR
ETHL 210628Z VRB01KT 0600 R27/0550N FG FEW001 04/04 Q1022 RED RED BECMG GRN =
TAF
COR ETHL 210433Z 2105/2114 VRB03KT 0500 FG VV001 BECMG 2106/2108 VRB03KT 4000 BR FEW010 BECMG 2108/2110 07005KT 9999 NSW FEW030 =

Notice: Undefined index: sun in /homepages/1/d158740339/htdocs/joomla/modules/mod_wx/tmpl/default.php on line 13

Flugplatz - Wetter - Memmingen

[Quelle: ADDS]
METAR
EDJA 210620Z 15003KT CAVOK 05/04 Q1022 =
TAF
EDJA 210500Z 2106/2115 VRB03KT CAVOK BECMG 2109/2111 08006KT =

Notice: Undefined index: sun in /homepages/1/d158740339/htdocs/joomla/modules/mod_wx/tmpl/default.php on line 13

Flugplatz - Wetter - Neuburg/Donau

[Quelle: ADDS]
METAR
ETSN 210620Z VRB01KT 0150 R27/0300/ FG VV001 08/07 Q1022 RED RED BECMG AMB =
TAF
ETSN 210420Z 2105/2114 VRB02KT 0400 FG VV001 BECMG 2106/2108 VRB03KT 9999 NSW FEW020 BY ETGL =

Notice: Undefined index: sun in /homepages/1/d158740339/htdocs/joomla/modules/mod_wx/tmpl/default.php on line 13

Flugplatz - Wetter - Stuttgart

[Quelle: ADDS]
METAR
EDDS 210620Z VRB02KT 6000 0600E R07/P2000N BCFG NSC 04/04 Q1022 TEMPO 1200 =
TAF
EDDS 210500Z 2106/2206 VRB03KT 7000 NSC TEMPO 2106/2109 0300 FG BKN001 BECMG 2111/2113 07005KT BECMG 2118/2120 VRB03KT TEMPO 2201/2206 3000 BCFG PROB30 TEMPO 2202/2206 0300 FG VV001 =

Notice: Undefined index: sun in /homepages/1/d158740339/htdocs/joomla/modules/mod_wx/tmpl/default.php on line 13

Flugplatz - Wetter - Niederstetten

[Quelle: ADDS]
METAR
ETHN 210620Z 16002KT 9000 MIFG FEW280 07/07 Q1022 BLU+BLU+ =
TAF
AMD ETHN 210545Z 2106/2114 VRB03KT 3000 BR FEW002 BECMG 2106/2107 15005KT 9999 NSW FEW030 =

Notice: Undefined index: sun in /homepages/1/d158740339/htdocs/joomla/modules/mod_wx/tmpl/default.php on line 13